Latest Weather Observations for Viewbank

IDV60801

Issued at 10:02 am EDT Wednesday 25 January 2017 (issued every 30 minutes, with the page automatically refreshed every 10 minutes)

About weather observations | Map of weather stations | Latest weather observations for VIC | Other Formats
Station Details ID: 086068 Name: VIEWBANK Lat: -37.74 Lon: 145.10 Height: 66.1 m
Data from the previous 72 hours. | See also: Recent months at Viewbank
Date/Time
EDT
Temp
°C
App
Temp
°C
Dew
Point
°C
Rel
Hum
%
Delta-T
°C
Wind Press
QNH
hPa
Press
MSL
hPa
Rain since
9am
mm
Dir  Spd
km/h
Gust
km/h
Spd
kts
Gust
kts
25/10:00am 18.4 16.4 8.7 53 5.0 S 9 17 5 9 1020.6 1020.4 0.0
25/09:30am 17.4 15.0 8.8 57 4.4 S 11 20 6 11 1020.9 1020.7 0.0
25/09:00am 16.9 14.8 8.3 57 4.4 SSE 9 19 5 10 1021.1 1020.9 0.0
25/08:30am 15.7 14.2 9.1 65 3.4 SSE 7 15 4 8 1021.1 1020.9 0.0
25/08:00am 13.9 13.0 10.5 80 1.8 S 6 9 3 5 1020.8 1020.6 0.0
25/07:30am 11.7 11.4 10.1 90 0.8 SW 2 7 1 4 1020.5 1020.3 0.0
25/07:00am 11.0 10.7 10.1 94 0.5 SW 2 6 1 3 1020.3 1020.1 0.0
25/06:30am 10.6 9.4 9.5 93 0.6 SW 6 7 3 4 1020.0 1019.8 0.0
25/06:00am 10.8 10.8 9.7 93 0.6 CALM 0 0 0 0 1019.9 1019.7 0.0
25/05:30am 11.1 11.0 9.5 90 0.8 CALM 0 0 0 0 1019.8 1019.6 0.0
25/05:00am 11.7 10.5 9.4 86 1.2 SSE 6 7 3 4 1019.7 1019.5 0.0
25/04:30am 11.9 11.1 9.5 85 1.2 SE 4 7 2 4 1019.8 1019.6 0.0
25/04:00am 11.8 11.7 9.4 85 1.2 CALM 0 0 0 0 1020.0 1019.8 0.0
25/03:30am 11.9 11.3 9.1 83 1.4 SSW 2 7 1 4 1020.3 1020.1 0.0
25/03:00am 12.3 12.0 8.8 79 1.7 CALM 0 0 0 0 1020.6 1020.4 0.0
25/02:30am 12.8 11.5 9.1 78 1.9 SW 6 9 3 5 1020.7 1020.5 0.0
25/02:00am 13.1 12.1 9.0 76 2.1 SSW 4 7 2 4 1020.9 1020.7 0.0
25/01:30am 13.3 13.0 8.8 74 2.3 CALM 0 0 0 0 1021.3 1021.1 0.0
25/01:00am 13.7 12.3 9.0 73 2.4 SSW 6 7 3 4 1021.4 1021.2 0.0
25/12:30am 14.1 13.1 8.9 71 2.6 S 4 9 2 5 1021.4 1021.2 0.0
25/12:00am 14.3 12.7 8.9 70 2.7 SSW 7 13 4 7 1021.4 1021.2 0.0
 
Date/Time
EDT
Temp
°C
App
Temp
°C
Dew
Point
°C
Rel
Hum
%
Delta-T
°C
Wind Press
QNH
hPa
Press
MSL
hPa
Rain since
9am
mm
Dir  Spd
km/h
Gust
km/h
Spd
kts
Gust
kts
24/11:30pm 14.8 13.3 9.0 68 3.0 SSW 7 11 4 6 1021.3 1021.1 0.0
24/11:00pm 15.3 13.0 9.0 66 3.2 SSW 11 20 6 11 1021.3 1021.1 0.0
24/10:30pm 15.6 12.9 8.8 64 3.5 S 13 24 7 13 1021.3 1021.1 0.0
24/10:00pm 15.9 13.7 9.3 65 3.4 SSW 11 20 6 11 1020.9 1020.7 0.0
24/09:30pm 16.7 14.3 8.7 59 4.1 SSW 11 20 6 11 1020.4 1020.2 0.0
24/09:00pm 17.1 13.7 9.3 60 4.1 SW 17 26 9 14 1020.0 1019.8 0.0
24/08:30pm 17.6 14.5 8.7 56 4.6 WSW 15 28 8 15 1019.3 1019.1 0.0
24/08:00pm 18.3 14.2 8.0 51 5.3 WSW 19 28 10 15 1018.8 1018.6 0.0
24/07:30pm 19.3 15.3 8.3 49 5.7 WSW 19 30 10 16 1018.3 1018.1 0.0
24/07:00pm 19.7 15.8 8.7 49 5.8 WSW 19 35 10 19 1017.6 1017.4 0.0
24/06:30pm 20.5 16.4 8.8 47 6.2 WSW 20 33 11 18 1017.2 1017.0 0.0
24/06:00pm 20.6 16.4 8.3 45 6.4 WSW 20 33 11 18 1016.8 1016.6 0.0
24/05:30pm 21.1 17.2 8.7 45 6.6 WSW 19 32 10 17 1016.6 1016.4 0.0
24/05:00pm 21.8 18.0 9.7 46 6.5 WSW 20 33 11 18 1016.4 1016.2 0.0
24/04:30pm 22.2 18.3 8.7 42 7.2 WSW 19 32 10 17 1016.3 1016.1 0.0
24/04:00pm 22.3 18.1 9.8 45 6.8 WSW 22 35 12 19 1016.2 1016.0 0.0
24/03:30pm 21.7 17.7 8.9 44 6.8 WSW 20 35 11 19 1016.2 1016.0 0.0
24/03:00pm 22.4 18.6 9.9 45 6.8 WSW 20 35 11 19 1016.0 1015.8 0.0
24/02:30pm 22.0 18.3 10.2 47 6.4 WSW 20 33 11 18 1015.7 1015.4 0.0
24/02:00pm 22.5 19.1 11.3 49 6.2 WSW 20 35 11 19 1015.4 1015.1 0.0
24/01:30pm 22.3 18.7 10.5 47 6.5 WSW 20 32 11 17 1015.0 1014.7 0.0
24/01:00pm 22.1 18.1 8.9 43 7.0 WSW 20 37 11 20 1014.8 1014.5 0.0
24/12:30pm 22.6 19.2 9.0 42 7.3 WSW 17 30 9 16 1014.7 1014.4 0.0
24/12:00pm 22.2 18.9 11.0 49 6.2 WSW 19 32 10 17 1014.7 1014.4 0.0
24/11:30am 20.9 18.5 12.8 60 4.6 WSW 17 30 9 16 1014.6 1014.3 0.0
24/11:00am 19.1 15.1 11.9 63 4.0 WSW 24 33 13 18 1014.4 1014.1 0.0
24/10:30am 19.7 16.5 12.0 61 4.3 WSW 20 32 11 17 1013.9 1013.6 0.0
24/10:00am 21.3 18.6 13.5 61 4.5 WSW 20 32 11 17 1013.4 1013.1 0.0
24/09:30am 20.6 18.0 12.1 58 4.8 W 17 28 9 15 1013.1 1012.8 0.0
24/09:00am 19.5 15.8 11.5 60 4.4 W 22 37 12 20 1012.6 1012.3 -
24/08:30am 19.3 16.2 12.3 64 3.9 W 20 35 11 19 1011.8 1011.6 -
24/08:00am 19.7 16.2 13.4 67 3.6 W 24 39 13 21 1011.1 1010.9 -
24/07:30am 19.3 16.3 13.7 70 3.2 W 22 41 12 22 1010.3 1010.1 -
24/07:00am 20.1 17.9 14.5 70 3.3 W 19 32 10 17 1009.2 1009.0 -
24/06:32am 20.2 16.5 15.0 72 3.1 W 28 48 15 26 1008.3 1008.1 -
24/06:30am 20.2 17.0 15.2 73 3.0 W 26 48 14 26 1008.2 1008.0 -
24/06:00am 20.5 19.4 17.3 82 2.0 W 19 35 10 19 1007.3 1007.1 -
24/05:44am 20.5 17.8 17.5 83 1.8 W 28 50 15 27 1006.9 1006.7 -
24/05:30am 20.8 19.8 18.9 89 1.2 W 22 46 12 25 1006.5 1006.3 -
24/05:00am 21.2 20.5 20.2 94 0.6 W 24 44 13 24 1005.7 1005.5 -
24/04:35am 21.7 20.2 20.3 92 0.9 W 28 56 15 30 1005.2 1005.0 -
24/04:30am 24.1 23.6 19.2 74 3.1 W 20 46 11 25 1005.0 1004.8 -
24/04:00am 24.4 25.5 18.8 71 3.6 WNW 11 26 6 14 1004.0 1003.8 -
24/03:30am 24.3 25.8 17.5 66 4.2 WNW 6 9 3 5 1003.8 1003.6 -
24/03:00am 25.3 25.9 17.7 62 4.8 NNW 11 20 6 11 1003.3 1003.1 -
24/02:30am 23.2 24.3 17.9 72 3.3 E 9 15 5 8 1003.3 1003.1 -
24/02:00am 22.3 24.1 18.3 78 2.5 SE 6 7 3 4 1003.1 1002.9 -
24/01:30am 22.4 24.5 18.0 76 2.7 ESE 4 11 2 6 1003.7 1003.5 0.0
24/01:00am 22.1 23.7 18.3 79 2.4 SE 7 11 4 6 1003.2 1003.0 0.0
24/12:30am 22.0 23.8 18.8 82 2.0 ESE 7 13 4 7 1004.4 1004.2 0.0
24/12:00am 22.1 23.6 18.1 78 2.5 NE 7 13 4 7 1004.2 1004.0 0.0
 
Date/Time
EDT
Temp
°C
App
Temp
°C
Dew
Point
°C
Rel
Hum
%
Delta-T
°C
Wind Press
QNH
hPa
Press
MSL
hPa
Rain since
9am
mm
Dir  Spd
km/h
Gust
km/h
Spd
kts
Gust
kts
23/11:30pm 22.3 25.1 17.9 76 2.7 CALM 0 0 0 0 1004.5 1004.3 0.0
23/11:00pm 22.3 22.2 17.9 76 2.8 ESE 15 22 8 12 1003.8 1003.6 0.0
23/10:30pm 22.1 23.5 18.7 81 2.1 ESE 9 13 5 7 1004.8 1004.6 0.0
23/10:00pm 21.9 24.4 19.1 84 1.8 SW 4 7 2 4 1005.2 1005.0 0.0
23/09:30pm 22.0 23.8 18.8 82 2.0 WSW 7 13 4 7 1005.9 1005.7 0.0
23/09:00pm 22.6 24.2 18.2 76 2.8 WSW 7 11 4 6 1005.8 1005.6 0.0
23/08:30pm 23.2 22.0 17.0 68 3.8 SW 19 32 10 17 1004.6 1004.4 0.0
23/08:00pm 24.7 22.3 15.3 56 5.7 SW 22 35 12 19 1003.9 1003.7 0.0
23/07:30pm 26.9 22.0 13.6 44 7.9 SW 32 56 17 30 1002.6 1002.3 0.0
23/07:27pm 27.0 22.0 13.4 43 8.0 SW 32 56 17 30 1002.4 1002.1 0.0
23/07:13pm 32.0 30.1 11.7 28 11.9 W 13 61 7 33 1001.4 1001.1 0.0
23/07:00pm 34.8 34.3 9.3 21 14.7 W 2 7 1 4 1000.8 1000.5 0.0
23/06:30pm 35.7 34.6 10.7 22 14.7 NW 7 13 4 7 1000.8 1000.5 0.0
23/06:00pm 35.7 33.3 8.5 19 15.5 NNW 11 19 6 10 1001.0 1000.7 0.0
23/05:30pm 35.5 32.3 8.3 19 15.4 NW 15 22 8 12 1001.3 1001.0 0.0
23/05:00pm 35.5 32.1 7.6 18 15.7 NW 15 24 8 13 1001.6 1001.3 0.0
23/04:30pm 35.8 33.6 9.3 20 15.3 NNW 11 28 6 15 1001.9 1001.6 0.0
23/04:00pm 35.9 34.9 10.9 22 14.8 WNW 7 17 4 9 1002.4 1002.1 0.0
23/03:30pm 35.1 33.9 11.5 24 14.0 WNW 9 17 5 9 1002.9 1002.7 0.0
23/03:00pm 33.7 31.2 10.9 25 13.4 W 15 24 8 13 1003.1 1002.9 0.0
23/02:30pm 33.9 31.0 11.1 25 13.4 NW 17 30 9 16 1003.4 1003.2 0.0
23/02:00pm 35.1 31.8 11.5 24 14.0 NNW 20 33 11 18 1003.8 1003.6 0.0
23/01:30pm 33.9 32.7 13.9 30 12.2 NNE 13 22 7 12 1004.1 1003.9 0.0
23/01:00pm 33.4 31.8 14.0 31 11.9 N 15 28 8 15 1004.3 1004.1 0.0
23/12:30pm 33.5 31.0 13.5 29 12.1 N 19 32 10 17 1004.6 1004.4 0.0
23/12:00pm 34.3 31.3 12.6 27 13.1 N 20 33 11 18 1004.7 1004.5 0.0
23/11:30am 33.1 32.2 13.7 31 11.8 NNE 11 24 6 13 1005.1 1004.9 0.0
23/11:00am 31.1 31.3 14.7 37 10.1 ESE 7 9 4 5 1005.4 1005.2 0.0
23/10:30am 29.0 29.4 16.2 46 8.0 ESE 9 13 5 7 1005.9 1005.7 0.0
23/10:00am 26.7 28.0 17.2 56 6.0 SSE 6 9 3 5 1006.3 1006.1 0.0
23/09:30am 23.8 25.0 16.8 65 4.3 SSE 6 7 3 4 1006.6 1006.4 0.0
23/09:00am 22.4 23.0 15.7 66 4.0 SSE 7 13 4 7 1006.6 1006.4 0.0
23/08:30am 21.7 22.6 16.2 71 3.3 SSE 6 11 3 6 1006.8 1006.6 0.0
23/08:00am 20.1 21.0 16.5 80 2.2 SSE 7 9 4 5 1006.7 1006.5 0.0
23/07:30am 19.7 20.4 16.2 80 2.1 SSE 7 9 4 5 1006.6 1006.4 0.0
23/07:00am 19.4 20.6 16.8 85 1.6 SSE 6 9 3 5 1007.0 1006.8 0.0
23/06:30am 19.2 20.9 17.2 88 1.2 SSE 4 7 2 4 1006.9 1006.7 0.0
23/06:00am 19.1 20.2 16.7 86 1.5 SSE 6 7 3 4 1007.0 1006.8 0.0
23/05:30am 19.1 21.2 16.3 84 1.7 CALM 0 0 0 0 1007.0 1006.8 0.0
23/05:00am 19.3 20.7 16.5 84 1.7 SSE 4 7 2 4 1007.0 1006.8 0.0
23/04:30am 19.3 20.9 16.9 86 1.5 SE 4 7 2 4 1007.2 1007.0 0.0
23/04:00am 19.1 20.2 16.5 85 1.6 SE 6 9 3 5 1007.3 1007.1 0.0
23/03:30am 19.6 20.9 17.2 86 1.5 SE 6 7 3 4 1007.6 1007.4 0.0
23/03:00am 19.8 21.1 17.6 87 1.4 SE 7 7 4 4 1007.7 1007.5 0.0
23/02:30am 20.5 23.0 17.3 82 2.0 CALM 0 0 0 0 1008.0 1007.8 0.0
23/02:00am 20.5 23.0 17.3 82 2.0 CALM 0 0 0 0 1008.3 1008.1 0.0
23/01:30am 20.8 23.4 17.4 81 2.1 CALM 0 0 0 0 1008.6 1008.4 0.0
23/01:00am 21.2 22.6 17.4 79 2.3 NE 6 7 3 4 1009.0 1008.8 0.0
23/12:30am 21.8 23.6 17.4 76 2.7 WNW 4 9 2 5 1009.6 1009.4 0.0
23/12:00am 22.3 23.3 16.8 71 3.4 NW 7 9 4 5 1009.9 1009.7 0.0
 
Date/Time
EDT
Temp
°C
App
Temp
°C
Dew
Point
°C
Rel
Hum
%
Delta-T
°C
Wind Press
QNH
hPa
Press
MSL
hPa
Rain since
9am
mm
Dir  Spd
km/h
Gust
km/h
Spd
kts
Gust
kts
22/11:30pm 22.6 24.8 16.6 69 3.7 CALM 0 0 0 0 1009.7 1009.5 0.0
22/11:00pm 23.0 24.1 16.5 67 4.0 W 6 7 3 4 1010.2 1010.0 0.0
22/10:30pm 23.4 24.3 16.2 64 4.4 NNW 6 7 3 4 1010.4 1010.2 0.0
22/10:00pm 23.7 25.7 16.0 62 4.7 CALM 0 0 0 0 1010.4 1010.2 0.0
22/09:30pm 24.3 25.9 16.0 60 5.1 SSE 2 7 1 4 1010.4 1010.2 0.0
22/09:00pm 24.8 26.8 16.0 58 5.4 CALM 0 6 0 3 1010.2 1010.0 0.0
22/08:30pm 25.7 26.3 15.4 53 6.3 SSE 6 9 3 5 1010.3 1010.1 0.0
22/08:00pm 27.3 27.2 15.0 47 7.5 S 9 17 5 9 1010.1 1009.9 0.0
22/07:30pm 28.7 28.8 14.5 42 8.6 SSE 7 13 4 7 1009.8 1009.6 0.0
22/07:00pm 29.3 28.3 13.5 38 9.5 SSE 11 17 6 9 1009.8 1009.6 0.0
22/06:30pm 30.0 29.2 14.1 37 9.6 S 11 20 6 11 1010.0 1009.8 0.0
22/06:00pm 30.5 29.6 13.7 35 10.1 S 11 19 6 10 1010.2 1010.0 0.0
22/05:30pm 30.8 29.2 14.0 36 10.2 SSW 15 24 8 13 1010.4 1010.2 0.0
22/05:00pm 30.6 28.9 14.7 38 9.7 SSW 17 24 9 13 1010.7 1010.5 0.0
22/04:30pm 30.9 29.8 13.2 34 10.6 SW 11 24 6 13 1011.1 1010.9 0.0
22/04:00pm 30.1 29.0 12.1 33 10.6 SSE 9 17 5 9 1011.4 1011.2 0.0
22/03:30pm 30.3 29.8 12.2 33 10.6 WSW 6 9 3 5 1011.8 1011.6 0.0
22/03:00pm 29.9 29.2 13.2 36 10.0 WSW 9 15 5 8 1012.3 1012.0 0.0
22/02:30pm 28.5 27.9 11.6 35 9.8 SSE 6 9 3 5 1012.7 1012.4 0.0
22/02:00pm 28.3 27.8 12.2 37 9.4 SSW 6 9 3 5 1013.1 1012.8 0.0
22/01:30pm 26.6 25.5 10.7 37 9.0 SW 7 11 4 6 1013.5 1013.2 0.0
22/01:00pm 25.8 25.0 11.6 41 8.1 S 7 11 4 6 1013.7 1013.4 0.0
22/12:30pm 25.0 24.5 12.6 46 7.2 ENE 7 13 4 7 1014.1 1013.8 0.0
22/12:00pm 24.1 23.7 13.0 50 6.4 SSW 7 15 4 8 1014.5 1014.2 0.0
22/11:30am 22.4 21.5 11.5 50 6.1 ESE 7 13 4 7 1014.9 1014.6 0.0
22/11:00am 21.2 20.3 11.5 54 5.4 SSE 7 13 4 7 1015.2 1014.9 0.0
22/10:30am 19.9 19.0 11.4 58 4.7 ESE 7 11 4 6 1015.6 1015.3 0.0

Other Formats:

Comma delimited format used in spreadsheet applications
http://www.bom.gov.au/fwo/IDV60801/IDV60801.95874.axf

JavaScript Object Notation format (JSON) in row-major order
http://www.bom.gov.au/fwo/IDV60801/IDV60801.95874.json